createdAt,value
2019-05-30T00:02:02.636Z,0.80
2019-05-30T00:04:31.655Z,0.70
2019-05-30T00:07:00.630Z,0.90
2019-05-30T00:09:30.000Z,0.80
2019-05-30T00:11:58.835Z,0.80
2019-05-30T00:14:28.200Z,1.10
2019-05-30T00:16:57.154Z,1.07
2019-05-30T00:19:26.079Z,0.90
2019-05-30T00:21:54.959Z,0.90
2019-05-30T00:24:24.244Z,0.70
2019-05-30T00:26:53.466Z,1.00
2019-05-30T00:29:22.374Z,0.77
2019-05-30T00:31:51.623Z,1.20
2019-05-30T00:34:20.488Z,0.60
2019-05-30T00:36:49.412Z,0.80
2019-05-30T00:39:18.428Z,0.70
2019-05-30T00:41:48.009Z,0.70
2019-05-30T00:44:16.960Z,0.70
2019-05-30T00:46:45.900Z,0.70
2019-05-30T00:49:14.825Z,0.73
2019-05-30T00:51:43.793Z,0.73
2019-05-30T00:54:12.723Z,1.07
2019-05-30T00:56:41.603Z,0.90
2019-05-30T00:59:10.467Z,0.80
2019-05-30T01:01:39.747Z,1.00
2019-05-30T01:04:08.929Z,0.80
2019-05-30T01:06:37.967Z,0.80
2019-05-30T01:09:07.618Z,0.87
2019-05-30T01:11:36.961Z,0.90
2019-05-30T01:14:07.345Z,0.90
2019-05-30T01:16:36.392Z,0.83
2019-05-30T01:19:05.419Z,0.90
2019-05-30T01:21:34.710Z,0.80
2019-05-30T01:24:03.692Z,0.90
2019-05-30T01:26:32.699Z,0.80
2019-05-30T01:29:01.686Z,0.90
2019-05-30T01:31:30.610Z,1.07
2019-05-30T01:33:59.550Z,0.83
2019-05-30T01:36:28.411Z,1.00
2019-05-30T01:38:57.705Z,0.80
2019-05-30T01:41:26.703Z,0.80
2019-05-30T01:43:55.711Z,0.90
2019-05-30T01:46:24.555Z,1.00
2019-05-30T01:48:53.776Z,1.20
2019-05-30T01:51:22.782Z,0.90
2019-05-30T01:53:51.670Z,0.70
2019-05-30T01:56:20.779Z,0.80
2019-05-30T01:58:49.715Z,1.03
2019-05-30T02:01:24.677Z,0.80
2019-05-30T02:03:49.320Z,1.10
2019-05-30T02:06:18.182Z,1.00
2019-05-30T02:08:47.208Z,0.90
2019-05-30T02:11:16.160Z,0.97
2019-05-30T02:13:45.389Z,0.80
2019-05-30T02:16:14.389Z,1.10
2019-05-30T02:18:43.242Z,1.10
2019-05-30T02:21:12.668Z,1.00
2019-05-30T02:23:41.623Z,1.00
2019-05-30T02:26:10.662Z,1.00
2019-05-30T02:28:39.741Z,0.80
2019-05-30T02:31:09.586Z,0.93
2019-05-30T02:33:40.011Z,0.80
2019-05-30T02:36:10.964Z,1.00
2019-05-30T02:38:39.729Z,0.70
2019-05-30T02:41:10.021Z,0.80
2019-05-30T02:43:39.538Z,1.00
2019-05-30T02:46:10.627Z,0.73
2019-05-30T02:48:57.259Z,0.90
2019-05-30T02:51:12.443Z,0.90
2019-05-30T02:53:40.909Z,1.30
2019-05-30T02:56:10.824Z,0.90
2019-05-30T02:58:40.693Z,0.90
2019-05-30T03:01:12.025Z,1.20
2019-05-30T03:03:40.514Z,0.80
2019-05-30T03:06:13.094Z,0.70
2019-05-30T03:08:40.216Z,0.90
2019-05-30T03:11:13.534Z,0.93
2019-05-30T03:13:41.037Z,1.00
2019-05-30T03:16:11.805Z,0.90
2019-05-30T03:18:40.750Z,0.80
2019-05-30T03:21:12.999Z,0.97
2019-05-30T03:23:41.279Z,0.90
2019-05-30T03:26:12.910Z,1.00
2019-05-30T03:28:41.007Z,0.90
2019-05-30T03:31:25.476Z,0.83
2019-05-30T03:33:42.876Z,0.90
2019-05-30T03:36:23.802Z,0.87
2019-05-30T03:38:42.507Z,1.10
2019-05-30T03:41:12.116Z,1.20
2019-05-30T03:43:41.564Z,0.87
2019-05-30T03:46:15.287Z,0.90
2019-05-30T03:48:47.564Z,1.03
2019-05-30T03:51:18.161Z,1.07
2019-05-30T03:53:47.500Z,0.90
2019-05-30T03:56:19.843Z,0.90
2019-05-30T03:59:00.923Z,0.83
2019-05-30T04:01:37.512Z,0.87
2019-05-30T04:04:16.986Z,0.90
2019-05-30T04:06:49.181Z,0.90
2019-05-30T04:09:24.274Z,0.90
2019-05-30T04:11:56.354Z,1.00
2019-05-30T04:14:28.449Z,1.10
2019-05-30T04:16:57.986Z,0.93
2019-05-30T04:19:27.440Z,1.10
2019-05-30T04:21:56.588Z,1.10
2019-05-30T04:24:25.443Z,0.83
2019-05-30T04:26:54.403Z,1.13
2019-05-30T04:29:24.293Z,0.90
2019-05-30T04:31:53.497Z,0.90
2019-05-30T04:34:22.479Z,0.80
2019-05-30T04:36:53.385Z,0.80
2019-05-30T04:39:22.133Z,0.90
2019-05-30T04:41:51.086Z,1.10
2019-05-30T04:44:20.495Z,0.90
2019-05-30T04:46:49.812Z,1.00
2019-05-30T04:49:21.349Z,1.00
2019-05-30T04:51:49.344Z,0.90
2019-05-30T04:54:19.219Z,1.00
2019-05-30T04:56:49.232Z,1.00
2019-05-30T04:59:19.938Z,1.00
2019-05-30T05:01:48.944Z,1.00
2019-05-30T05:04:19.451Z,0.70
2019-05-30T05:06:48.319Z,1.00
2019-05-30T05:09:18.184Z,1.00
2019-05-30T05:11:47.335Z,0.97
2019-05-30T05:14:16.453Z,0.70
2019-05-30T05:16:45.543Z,1.00
2019-05-30T05:19:14.930Z,1.00
2019-05-30T05:21:43.883Z,1.00
2019-05-30T05:24:13.395Z,0.70
2019-05-30T05:26:42.442Z,1.07
2019-05-30T05:29:11.759Z,1.20
2019-05-30T05:31:40.743Z,0.90
2019-05-30T05:34:09.639Z,1.13
2019-05-30T05:36:38.848Z,0.90
2019-05-30T05:39:08.366Z,0.90
2019-05-30T05:41:37.175Z,0.90
2019-05-30T05:44:06.204Z,1.10
2019-05-30T05:46:35.135Z,1.17
2019-05-30T05:49:04.172Z,1.10
2019-05-30T05:51:33.200Z,1.20
2019-05-30T05:54:02.214Z,1.00
2019-05-30T05:56:31.082Z,0.90
2019-05-30T05:58:59.921Z,0.90
2019-05-30T06:01:30.147Z,0.80
2019-05-30T06:04:12.102Z,0.90
2019-05-30T06:06:31.621Z,1.00
2019-05-30T06:09:00.760Z,1.10
2019-05-30T06:11:30.025Z,1.00
2019-05-30T06:13:59.096Z,1.00
2019-05-30T06:16:28.401Z,0.80
2019-05-30T06:18:57.391Z,0.80
2019-05-30T06:21:27.475Z,0.93
2019-05-30T06:23:56.732Z,0.90
2019-05-30T06:26:25.952Z,1.07
2019-05-30T06:28:54.854Z,0.80
2019-05-30T06:31:24.486Z,0.90
2019-05-30T06:33:53.471Z,1.00
2019-05-30T06:36:23.059Z,1.00
2019-05-30T06:38:52.254Z,0.83
2019-05-30T06:41:21.473Z,1.47
2019-05-30T06:43:50.530Z,1.10
2019-05-30T06:46:20.119Z,1.10
2019-05-30T06:48:49.204Z,0.90
2019-05-30T06:51:18.175Z,0.97
2019-05-30T06:53:47.138Z,0.90
2019-05-30T06:56:16.460Z,1.00
2019-05-30T06:58:48.684Z,1.53
2019-05-30T07:01:16.354Z,1.27
2019-05-30T07:03:45.492Z,1.30
2019-05-30T07:06:15.247Z,1.33
2019-05-30T07:08:44.588Z,1.27
2019-05-30T07:11:13.603Z,1.20
2019-05-30T07:13:43.289Z,1.20
2019-05-30T07:16:12.534Z,1.27
2019-05-30T07:18:41.583Z,1.10
2019-05-30T07:21:10.865Z,1.40
2019-05-30T07:23:40.052Z,1.30
2019-05-30T07:26:09.320Z,0.97
2019-05-30T07:28:38.288Z,1.03
2019-05-30T07:31:07.196Z,1.30
2019-05-30T07:33:36.132Z,1.27
2019-05-30T07:36:09.626Z,1.00
2019-05-30T07:38:38.835Z,1.07
2019-05-30T07:41:07.854Z,0.93
2019-05-30T07:43:36.770Z,1.30
2019-05-30T07:46:05.836Z,1.40
2019-05-30T07:48:34.878Z,1.17
2019-05-30T07:51:03.786Z,1.17
2019-05-30T07:53:32.808Z,1.07
2019-05-30T07:56:02.111Z,1.10
2019-05-30T07:58:31.200Z,1.30
2019-05-30T08:01:00.231Z,1.17
2019-05-30T08:03:30.398Z,1.10
2019-05-30T08:05:59.399Z,0.97
2019-05-30T08:08:28.384Z,1.30
2019-05-30T08:11:09.011Z,1.03
2019-05-30T08:13:28.786Z,1.10
2019-05-30T08:15:58.063Z,1.00
2019-05-30T08:18:27.549Z,0.90
2019-05-30T08:20:56.614Z,1.10
2019-05-30T08:23:25.603Z,1.30
2019-05-30T08:25:54.903Z,1.17
2019-05-30T08:28:23.855Z,1.20
2019-05-30T08:30:56.564Z,1.20
2019-05-30T08:33:23.748Z,1.13
2019-05-30T08:35:52.720Z,1.00
2019-05-30T08:38:21.667Z,0.90
2019-05-30T08:40:50.523Z,1.10
2019-05-30T08:43:19.359Z,1.10
2019-05-30T08:45:48.394Z,1.07
2019-05-30T08:48:17.456Z,1.00
2019-05-30T08:50:46.290Z,1.10
2019-05-30T08:53:15.236Z,1.20
2019-05-30T08:55:44.548Z,1.00
2019-05-30T08:58:13.752Z,0.97
2019-05-30T09:00:42.695Z,1.23
2019-05-30T09:03:11.601Z,0.80
2019-05-30T09:05:58.190Z,1.00
2019-05-30T09:08:11.874Z,1.00
2019-05-30T09:10:40.957Z,1.00
2019-05-30T09:13:10.324Z,1.00
2019-05-30T09:15:40.959Z,1.07
2019-05-30T09:18:10.162Z,1.00
2019-05-30T09:20:39.857Z,0.80
2019-05-30T09:23:09.267Z,1.07
2019-05-30T09:25:38.902Z,0.93
2019-05-30T09:28:08.986Z,1.30
2019-05-30T09:30:39.889Z,0.90
2019-05-30T09:33:09.454Z,1.53
2019-05-30T09:35:38.484Z,1.00
2019-05-30T09:38:08.918Z,1.10
2019-05-30T09:40:39.321Z,1.23
2019-05-30T09:43:08.687Z,1.10
2019-05-30T09:45:37.590Z,1.20
2019-05-30T09:48:06.625Z,1.20
2019-05-30T09:50:35.528Z,1.10
2019-05-30T09:53:04.527Z,0.90
2019-05-30T09:55:33.366Z,1.13
2019-05-30T09:58:02.329Z,1.10
2019-05-30T10:00:33.484Z,1.20
2019-05-30T10:03:02.547Z,1.50
2019-05-30T10:05:31.850Z,1.20
2019-05-30T10:08:00.806Z,1.40
2019-05-30T10:10:29.883Z,0.90
2019-05-30T10:12:58.777Z,0.77
2019-05-30T10:15:28.276Z,0.90
2019-05-30T10:17:57.219Z,0.90
2019-05-30T10:20:26.234Z,1.00
2019-05-30T10:22:57.126Z,1.10
2019-05-30T10:25:26.485Z,1.10
2019-05-30T10:27:55.509Z,1.40
2019-05-30T10:30:25.366Z,1.03
2019-05-30T10:32:55.786Z,1.00
2019-05-30T10:35:25.035Z,0.93
2019-05-30T10:37:53.959Z,0.97
2019-05-30T10:40:22.956Z,1.00
2019-05-30T10:42:53.305Z,1.03
2019-05-30T10:45:23.171Z,1.07
2019-05-30T10:47:53.519Z,1.10
2019-05-30T10:50:23.387Z,1.00
2019-05-30T10:52:53.599Z,0.93
2019-05-30T10:55:23.564Z,1.07
2019-05-30T10:57:56.275Z,0.90
2019-05-30T11:00:39.882Z,0.97
2019-05-30T11:03:08.856Z,1.07
2019-05-30T11:05:37.827Z,0.90
2019-05-30T11:08:10.224Z,0.90
2019-05-30T11:10:40.703Z,1.00
2019-05-30T11:13:12.542Z,0.97
2019-05-30T11:15:41.718Z,1.20
2019-05-30T11:18:10.837Z,1.20
2019-05-30T11:20:39.847Z,1.17
2019-05-30T11:23:09.963Z,0.80
2019-05-30T11:25:38.975Z,1.00
2019-05-30T11:28:08.142Z,1.10
2019-05-30T11:30:37.151Z,1.03
2019-05-30T11:33:06.251Z,0.83
2019-05-30T11:35:35.379Z,1.00
2019-05-30T11:38:05.198Z,0.90
2019-05-30T11:40:34.199Z,1.27
2019-05-30T11:43:03.122Z,1.60
2019-05-30T11:45:32.515Z,1.27
2019-05-30T11:48:01.501Z,0.90
2019-05-30T11:50:30.756Z,1.00
2019-05-30T11:53:00.307Z,0.90
2019-05-30T11:55:29.619Z,1.20
2019-05-30T11:57:58.584Z,1.00
2019-05-30T12:00:27.912Z,0.90
2019-05-30T12:02:56.888Z,1.10
2019-05-30T12:05:26.665Z,1.10
2019-05-30T12:07:56.982Z,1.07
2019-05-30T12:10:26.658Z,0.90
2019-05-30T12:12:55.550Z,1.30
2019-05-30T12:15:24.605Z,1.23
2019-05-30T12:17:53.571Z,1.43
2019-05-30T12:20:22.628Z,1.30
2019-05-30T12:22:51.838Z,1.07
2019-05-30T12:25:20.938Z,1.10
2019-05-30T12:27:49.989Z,0.80
2019-05-30T12:30:19.731Z,0.83
2019-05-30T12:32:48.786Z,0.90
2019-05-30T12:35:18.113Z,0.97
2019-05-30T12:37:54.640Z,0.90
2019-05-30T12:40:18.170Z,0.90
2019-05-30T12:42:47.290Z,0.90
2019-05-30T12:45:18.136Z,0.90
2019-05-30T12:47:47.178Z,0.80
2019-05-30T12:50:16.959Z,1.00
2019-05-30T12:52:45.865Z,0.80
2019-05-30T12:55:14.800Z,0.80
2019-05-30T12:57:43.741Z,1.07
2019-05-30T13:00:18.196Z,0.90
2019-05-30T13:02:44.859Z,1.20
2019-05-30T13:05:14.395Z,0.93
2019-05-30T13:07:43.314Z,0.90
2019-05-30T13:10:12.513Z,0.87
2019-05-30T13:12:41.441Z,0.80
2019-05-30T13:15:10.523Z,0.70
2019-05-30T13:17:39.461Z,0.80
2019-05-30T13:20:09.363Z,0.80
2019-05-30T13:22:39.151Z,0.83
2019-05-30T13:25:09.175Z,1.00
2019-05-30T13:27:38.547Z,0.90
2019-05-30T13:30:08.438Z,0.63
2019-05-30T13:32:38.080Z,0.80
2019-05-30T13:35:07.840Z,0.90
2019-05-30T13:37:37.064Z,0.90
2019-05-30T13:40:23.794Z,0.90
2019-05-30T13:42:37.434Z,0.80
2019-05-30T13:45:06.684Z,1.00
2019-05-30T13:47:36.511Z,0.90
2019-05-30T13:50:09.799Z,1.07
2019-05-30T13:52:36.978Z,0.80
2019-05-30T13:55:08.506Z,0.80
2019-05-30T13:57:38.584Z,0.80
2019-05-30T14:00:10.628Z,0.85
2019-05-30T14:02:39.867Z,0.77
2019-05-30T14:05:10.364Z,0.80
2019-05-30T14:07:39.863Z,0.70
2019-05-30T14:10:10.715Z,0.80
2019-05-30T14:12:39.943Z,0.87
2019-05-30T14:15:13.777Z,0.80
2019-05-30T14:17:40.839Z,1.03
2019-05-30T14:20:11.192Z,1.03
2019-05-30T14:22:40.470Z,0.80
2019-05-30T14:25:11.610Z,1.00
2019-05-30T14:27:41.239Z,0.87
2019-05-30T14:30:13.081Z,1.27
2019-05-30T14:32:42.346Z,0.90
2019-05-30T14:35:13.581Z,1.00
2019-05-30T14:37:42.550Z,1.00
2019-05-30T14:40:13.085Z,0.80
2019-05-30T14:42:42.537Z,1.00
2019-05-30T14:45:12.714Z,1.23
2019-05-30T14:47:41.623Z,1.20
2019-05-30T14:50:13.054Z,1.00
2019-05-30T14:52:42.156Z,1.10
2019-05-30T14:55:13.304Z,1.23
2019-05-30T14:57:42.731Z,0.87
2019-05-30T15:00:15.874Z,1.30
2019-05-30T15:02:45.383Z,1.10
2019-05-30T15:05:15.721Z,1.17
2019-05-30T15:07:44.957Z,1.00
2019-05-30T15:10:14.240Z,1.10
2019-05-30T15:12:43.230Z,0.90
2019-05-30T15:15:16.670Z,1.47
2019-05-30T15:17:45.452Z,1.10
2019-05-30T15:20:15.855Z,1.20
2019-05-30T15:22:44.919Z,1.30
2019-05-30T15:25:16.460Z,1.20
2019-05-30T15:27:44.864Z,1.10
2019-05-30T15:30:14.802Z,1.43
2019-05-30T15:32:43.962Z,1.07
2019-05-30T15:35:13.210Z,1.10
2019-05-30T15:37:42.627Z,1.00
2019-05-30T15:40:13.018Z,1.00
2019-05-30T15:42:42.227Z,1.07
2019-05-30T15:45:11.903Z,0.90
2019-05-30T15:47:41.675Z,1.30
2019-05-30T15:50:15.001Z,1.40
2019-05-30T15:52:43.963Z,1.20
2019-05-30T15:55:13.326Z,1.23
2019-05-30T15:57:42.651Z,1.10
2019-05-30T16:00:12.385Z,1.23
2019-05-30T16:02:41.538Z,1.33
2019-05-30T16:05:12.331Z,1.40
2019-05-30T16:07:41.574Z,1.50
2019-05-30T16:10:13.402Z,1.50
2019-05-30T16:12:42.260Z,1.43
2019-05-30T16:18:40.762Z,1.20
2019-05-30T16:21:12.699Z,1.00
2019-05-30T16:23:40.510Z,1.37
2019-05-30T16:26:09.582Z,1.33
2019-05-30T16:28:38.899Z,1.80
2019-05-30T16:31:08.183Z,1.30
2019-05-30T16:33:37.074Z,1.30
2019-05-30T16:36:06.083Z,1.20
2019-05-30T16:38:34.925Z,1.23
2019-05-30T16:41:03.876Z,1.40
2019-05-30T16:43:33.184Z,1.37
2019-05-30T16:46:02.299Z,1.17
2019-05-30T16:48:31.343Z,1.40
2019-05-30T16:51:00.323Z,0.93
2019-05-30T16:53:29.350Z,1.30
2019-05-30T16:55:58.325Z,1.37
2019-05-30T16:58:27.696Z,1.10
2019-05-30T17:00:56.780Z,1.00
2019-05-30T17:03:26.141Z,1.30
2019-05-30T17:05:55.499Z,1.30
2019-05-30T17:08:24.559Z,1.10
2019-05-30T17:10:54.013Z,1.60
2019-05-30T17:13:23.846Z,1.30
2019-05-30T17:15:52.902Z,1.37
2019-05-30T17:18:22.356Z,1.47
2019-05-30T17:20:52.036Z,1.30
2019-05-30T17:23:21.040Z,1.60
2019-05-30T17:25:49.846Z,1.10
2019-05-30T17:28:18.792Z,1.43
2019-05-30T17:30:51.066Z,1.20
2019-05-30T17:33:22.331Z,1.20
2019-05-30T17:35:50.956Z,1.47
2019-05-30T17:38:20.425Z,1.30
2019-05-30T17:40:49.902Z,1.53
2019-05-30T17:43:18.884Z,1.47
2019-05-30T17:46:09.701Z,1.60
2019-05-30T17:48:38.697Z,1.80
2019-05-30T17:51:07.681Z,1.60
2019-05-30T17:53:37.937Z,1.43
2019-05-30T17:56:06.923Z,1.80
2019-05-30T17:58:36.003Z,1.83
2019-05-30T18:01:04.918Z,1.87
2019-05-30T18:03:33.965Z,1.80
2019-05-30T18:06:03.108Z,2.20
2019-05-30T18:08:32.751Z,3.00
2019-05-30T18:11:02.059Z,3.83
2019-05-30T18:13:31.270Z,5.97
2019-05-30T18:16:00.275Z,5.33
2019-05-30T18:18:29.359Z,4.23
2019-05-30T18:20:58.318Z,4.37
2019-05-30T18:23:27.575Z,3.57
2019-05-30T18:25:56.576Z,3.00
2019-05-30T18:28:25.796Z,3.27
2019-05-30T18:30:54.819Z,3.50
2019-05-30T18:33:24.382Z,2.47
2019-05-30T18:35:53.563Z,2.20
2019-05-30T18:38:22.521Z,1.77
2019-05-30T18:40:51.539Z,1.70
2019-05-30T18:43:20.542Z,2.10
2019-05-30T18:45:49.545Z,2.00
2019-05-30T18:48:18.807Z,1.37
2019-05-30T18:50:47.790Z,1.70
2019-05-30T18:53:17.091Z,1.73
2019-05-30T18:55:46.109Z,1.63
2019-05-30T18:58:15.060Z,1.83
2019-05-30T19:00:43.990Z,2.13
2019-05-30T19:03:13.018Z,1.83
2019-05-30T19:05:42.014Z,1.80
2019-05-30T19:08:10.932Z,1.57
2019-05-30T19:10:39.811Z,1.30
2019-05-30T19:13:08.843Z,1.37
2019-05-30T19:15:37.771Z,1.30
2019-05-30T19:18:09.277Z,1.60
2019-05-30T19:20:37.803Z,1.30
2019-05-30T19:23:07.094Z,1.40
2019-05-30T19:25:36.140Z,1.57
2019-05-30T19:28:05.396Z,1.50
2019-05-30T19:30:34.896Z,1.37
2019-05-30T19:33:04.225Z,1.20
2019-05-30T19:35:33.296Z,1.37
2019-05-30T19:38:02.319Z,1.20
2019-05-30T19:40:31.673Z,1.37
2019-05-30T19:43:00.639Z,1.30
2019-05-30T19:45:29.970Z,1.37
2019-05-30T19:47:59.391Z,1.50
2019-05-30T19:50:28.546Z,1.40
2019-05-30T19:52:57.625Z,1.30
2019-05-30T19:55:26.933Z,1.50
2019-05-30T19:57:55.913Z,1.50
2019-05-30T20:00:24.914Z,1.60
2019-05-30T20:02:53.758Z,1.53
2019-05-30T20:05:22.799Z,1.23
2019-05-30T20:07:51.749Z,1.20
2019-05-30T20:10:20.804Z,1.50
2019-05-30T20:12:49.937Z,1.00
2019-05-30T20:15:20.603Z,1.20
2019-05-30T20:17:50.176Z,1.10
2019-05-30T20:20:19.310Z,1.33
2019-05-30T20:22:48.243Z,1.20
2019-05-30T20:25:17.744Z,1.10
2019-05-30T20:27:46.531Z,1.47
2019-05-30T20:30:17.606Z,1.30
2019-05-30T20:32:47.218Z,1.30
2019-05-30T20:35:16.390Z,1.20
2019-05-30T20:37:45.327Z,1.60
2019-05-30T20:40:15.233Z,1.27
2019-05-30T20:42:44.640Z,1.43
2019-05-30T20:45:14.318Z,1.60
2019-05-30T20:47:44.479Z,1.30
2019-05-30T20:50:15.191Z,1.60
2019-05-30T20:52:45.646Z,1.27
2019-05-30T20:55:16.261Z,1.10
2019-05-30T20:57:45.351Z,1.40
2019-05-30T21:00:15.462Z,1.50
2019-05-30T21:02:44.971Z,1.50
2019-05-30T21:05:14.064Z,1.60
2019-05-30T21:07:44.443Z,1.60
2019-05-30T21:10:15.249Z,1.37
2019-05-30T21:12:48.783Z,1.60
2019-05-30T21:15:17.333Z,1.53
2019-05-30T21:17:47.888Z,1.30
2019-05-30T21:20:17.266Z,1.20
2019-05-30T21:22:46.779Z,1.10
2019-05-30T21:25:16.076Z,1.20
2019-05-30T21:27:45.310Z,1.50
2019-05-30T21:30:14.943Z,1.30
2019-05-30T21:32:45.040Z,1.20
2019-05-30T21:35:15.276Z,1.40
2019-05-30T21:37:44.352Z,1.63
2019-05-30T21:40:14.374Z,1.60
2019-05-30T21:42:57.767Z,1.60
2019-05-30T21:45:14.535Z,1.50
2019-05-30T21:47:44.522Z,1.33
2019-05-30T21:50:14.525Z,1.60
2019-05-30T21:52:46.096Z,1.40
2019-05-30T21:55:14.959Z,1.60
2019-05-30T21:57:43.939Z,1.50
2019-05-30T22:00:15.919Z,1.60
2019-05-30T22:02:51.568Z,1.10
2019-05-30T22:05:20.510Z,1.63
2019-05-30T22:07:49.450Z,1.70
2019-05-30T22:10:18.434Z,1.57
2019-05-30T22:12:47.594Z,1.47
2019-05-30T22:15:17.065Z,1.50
2019-05-30T22:17:47.770Z,1.50
2019-05-30T22:20:17.452Z,1.70
2019-05-30T22:22:46.458Z,1.50
2019-05-30T22:25:15.984Z,1.63
2019-05-30T22:27:44.919Z,1.20
2019-05-30T22:30:14.235Z,1.70
2019-05-30T22:32:43.082Z,1.50
2019-05-30T22:35:12.059Z,1.30
2019-05-30T22:37:40.903Z,1.70
2019-05-30T22:40:09.884Z,1.37
2019-05-30T22:42:39.283Z,1.33
2019-05-30T22:45:08.535Z,1.80
2019-05-30T22:47:37.858Z,1.60
2019-05-30T22:50:07.402Z,1.33
2019-05-30T22:52:36.778Z,1.37
2019-05-30T22:55:05.935Z,1.60
2019-05-30T22:57:34.799Z,1.60
2019-05-30T23:00:03.932Z,1.50
2019-05-30T23:02:33.290Z,1.50
2019-05-30T23:05:02.606Z,1.57
2019-05-30T23:07:31.576Z,1.50
2019-05-30T23:10:00.467Z,1.60
2019-05-30T23:12:29.470Z,1.50
2019-05-30T23:14:58.298Z,1.43
2019-05-30T23:17:27.364Z,1.83
2019-05-30T23:19:56.874Z,1.60
2019-05-30T23:22:26.258Z,1.37
2019-05-30T23:24:55.541Z,1.30
2019-05-30T23:27:24.554Z,1.40
2019-05-30T23:29:54.000Z,1.23
2019-05-30T23:32:23.251Z,1.50
2019-05-30T23:34:52.255Z,1.50
2019-05-30T23:37:21.412Z,1.37
2019-05-30T23:39:50.753Z,1.27
2019-05-30T23:42:20.015Z,1.60
2019-05-30T23:44:49.249Z,1.10
2019-05-30T23:47:18.576Z,1.50
2019-05-30T23:49:47.562Z,1.50
2019-05-30T23:52:16.854Z,1.50
2019-05-30T23:54:45.819Z,1.67
2019-05-30T23:57:15.078Z,1.83
2019-05-30T23:59:44.366Z,1.60
